sensor_id;sensor_type;location;lat;lon;timestamp;P1;durP1;ratioP1;P2;durP2;ratioP2
57889;SDS011;43707;50.184;18.966;2022-12-07T00:07:49;19.80;;;10.90;;
57889;SDS011;43707;50.184;18.966;2022-12-07T00:10:14;23.00;;;11.70;;
57889;SDS011;43707;50.184;18.966;2022-12-07T00:12:48;15.10;;;10.40;;
57889;SDS011;43707;50.184;18.966;2022-12-07T00:15:21;22.20;;;14.10;;
57889;SDS011;43707;50.184;18.966;2022-12-07T00:17:50;19.30;;;11.60;;
57889;SDS011;43707;50.184;18.966;2022-12-07T00:20:16;24.90;;;13.70;;
57889;SDS011;43707;50.184;18.966;2022-12-07T00:22:51;19.90;;;12.00;;
57889;SDS011;43707;50.184;18.966;2022-12-07T00:25:23;19.20;;;11.40;;
57889;SDS011;43707;50.184;18.966;2022-12-07T00:28:00;18.80;;;11.00;;
57889;SDS011;43707;50.184;18.966;2022-12-07T00:30:35;14.70;;;9.40;;
57889;SDS011;43707;50.184;18.966;2022-12-07T00:33:01;17.80;;;10.00;;
57889;SDS011;43707;50.184;18.966;2022-12-07T00:35:28;18.00;;;9.40;;
57889;SDS011;43707;50.184;18.966;2022-12-07T00:38:18;12.40;;;8.90;;
57889;SDS011;43707;50.184;18.966;2022-12-07T00:40:43;13.00;;;9.50;;
57889;SDS011;43707;50.184;18.966;2022-12-07T00:43:12;16.90;;;9.40;;
57889;SDS011;43707;50.184;18.966;2022-12-07T00:45:40;20.40;;;12.70;;
57889;SDS011;43707;50.184;18.966;2022-12-07T00:48:05;23.10;;;14.90;;
57889;SDS011;43707;50.184;18.966;2022-12-07T00:50:33;27.70;;;17.20;;
57889;SDS011;43707;50.184;18.966;2022-12-07T00:53:01;23.90;;;16.40;;
57889;SDS011;43707;50.184;18.966;2022-12-07T00:58:29;38.70;;;20.20;;
57889;SDS011;43707;50.184;18.966;2022-12-07T01:01:01;28.90;;;16.50;;
57889;SDS011;43707;50.184;18.966;2022-12-07T01:03:34;26.50;;;16.40;;
57889;SDS011;43707;50.184;18.966;2022-12-07T01:06:00;22.90;;;14.80;;
57889;SDS011;43707;50.184;18.966;2022-12-07T01:08:29;31.30;;;15.90;;
57889;SDS011;43707;50.184;18.966;2022-12-07T01:11:06;35.40;;;19.50;;
57889;SDS011;43707;50.184;18.966;2022-12-07T01:16:35;27.00;;;16.50;;
57889;SDS011;43707;50.184;18.966;2022-12-07T01:19:08;29.10;;;16.00;;
57889;SDS011;43707;50.184;18.966;2022-12-07T01:21:59;25.30;;;14.90;;
57889;SDS011;43707;50.184;18.966;2022-12-07T01:24:50;22.30;;;12.50;;
57889;SDS011;43707;50.184;18.966;2022-12-07T01:27:16;23.20;;;13.60;;
57889;SDS011;43707;50.184;18.966;2022-12-07T01:29:44;22.70;;;13.70;;
57889;SDS011;43707;50.184;18.966;2022-12-07T01:32:12;23.50;;;13.30;;
57889;SDS011;43707;50.184;18.966;2022-12-07T01:34:50;25.40;;;13.40;;
57889;SDS011;43707;50.184;18.966;2022-12-07T01:37:22;27.00;;;14.60;;
57889;SDS011;43707;50.184;18.966;2022-12-07T01:39:51;24.00;;;14.10;;
57889;SDS011;43707;50.184;18.966;2022-12-07T01:42:18;28.90;;;14.90;;
57889;SDS011;43707;50.184;18.966;2022-12-07T01:50:29;25.80;;;15.90;;
57889;SDS011;43707;50.184;18.966;2022-12-07T01:52:59;34.80;;;19.00;;
57889;SDS011;43707;50.184;18.966;2022-12-07T01:55:26;27.40;;;14.50;;
57889;SDS011;43707;50.184;18.966;2022-12-07T01:57:52;21.90;;;12.90;;
57889;SDS011;43707;50.184;18.966;2022-12-07T02:00:26;25.20;;;14.50;;
57889;SDS011;43707;50.184;18.966;2022-12-07T02:05:29;31.70;;;14.40;;
57889;SDS011;43707;50.184;18.966;2022-12-07T02:07:56;21.90;;;14.60;;
57889;SDS011;43707;50.184;18.966;2022-12-07T02:10:23;29.60;;;17.30;;
57889;SDS011;43707;50.184;18.966;2022-12-07T02:12:56;26.60;;;15.80;;
57889;SDS011;43707;50.184;18.966;2022-12-07T02:15:29;28.90;;;16.10;;
57889;SDS011;43707;50.184;18.966;2022-12-07T02:32:30;33.20;;;19.70;;
57889;SDS011;43707;50.184;18.966;2022-12-07T02:37:53;32.90;;;19.60;;
57889;SDS011;43707;50.184;18.966;2022-12-07T02:40:35;31.70;;;20.00;;
57889;SDS011;43707;50.184;18.966;2022-12-07T02:43:12;27.70;;;16.90;;
57889;SDS011;43707;50.184;18.966;2022-12-07T02:45:46;36.80;;;21.70;;
57889;SDS011;43707;50.184;18.966;2022-12-07T02:48:16;38.40;;;23.70;;
57889;SDS011;43707;50.184;18.966;2022-12-07T02:50:47;33.90;;;20.50;;
57889;SDS011;43707;50.184;18.966;2022-12-07T02:53:39;36.20;;;21.30;;
57889;SDS011;43707;50.184;18.966;2022-12-07T02:59:52;29.30;;;18.60;;
57889;SDS011;43707;50.184;18.966;2022-12-07T03:16:27;26.40;;;14.60;;
57889;SDS011;43707;50.184;18.966;2022-12-07T03:18:58;24.40;;;15.50;;
57889;SDS011;43707;50.184;18.966;2022-12-07T03:21:27;24.40;;;14.10;;
57889;SDS011;43707;50.184;18.966;2022-12-07T03:23:58;21.30;;;13.80;;
57889;SDS011;43707;50.184;18.966;2022-12-07T03:26:35;21.70;;;12.80;;
57889;SDS011;43707;50.184;18.966;2022-12-07T03:29:23;17.70;;;12.10;;
57889;SDS011;43707;50.184;18.966;2022-12-07T03:31:59;18.00;;;11.10;;
57889;SDS011;43707;50.184;18.966;2022-12-07T03:43:28;16.90;;;11.10;;
57889;SDS011;43707;50.184;18.966;2022-12-07T03:54:56;21.30;;;12.20;;
57889;SDS011;43707;50.184;18.966;2022-12-07T03:57:27;24.10;;;13.60;;
57889;SDS011;43707;50.184;18.966;2022-12-07T03:59:55;25.10;;;13.70;;
57889;SDS011;43707;50.184;18.966;2022-12-07T04:02:30;33.10;;;17.00;;
57889;SDS011;43707;50.184;18.966;2022-12-07T04:04:56;26.40;;;13.90;;
57889;SDS011;43707;50.184;18.966;2022-12-07T04:07:28;30.50;;;17.10;;
57889;SDS011;43707;50.184;18.966;2022-12-07T04:10:02;30.30;;;16.50;;
57889;SDS011;43707;50.184;18.966;2022-12-07T04:12:32;30.50;;;17.20;;
57889;SDS011;43707;50.184;18.966;2022-12-07T04:15:04;35.80;;;18.00;;
57889;SDS011;43707;50.184;18.966;2022-12-07T04:17:36;30.80;;;14.70;;
57889;SDS011;43707;50.184;18.966;2022-12-07T04:20:02;29.00;;;16.90;;
57889;SDS011;43707;50.184;18.966;2022-12-07T04:22:29;26.00;;;14.90;;
57889;SDS011;43707;50.184;18.966;2022-12-07T04:25:01;27.20;;;15.30;;
57889;SDS011;43707;50.184;18.966;2022-12-07T04:27:27;34.40;;;16.40;;
57889;SDS011;43707;50.184;18.966;2022-12-07T04:29:55;29.90;;;15.90;;
57889;SDS011;43707;50.184;18.966;2022-12-07T04:32:25;27.50;;;15.60;;
57889;SDS011;43707;50.184;18.966;2022-12-07T04:34:50;24.40;;;13.20;;
57889;SDS011;43707;50.184;18.966;2022-12-07T04:37:16;24.30;;;13.00;;
57889;SDS011;43707;50.184;18.966;2022-12-07T04:39:44;19.20;;;12.30;;
57889;SDS011;43707;50.184;18.966;2022-12-07T04:42:13;24.70;;;12.90;;
57889;SDS011;43707;50.184;18.966;2022-12-07T04:44:41;27.90;;;13.70;;
57889;SDS011;43707;50.184;18.966;2022-12-07T04:47:06;19.00;;;11.70;;
57889;SDS011;43707;50.184;18.966;2022-12-07T04:49:33;21.90;;;12.10;;
57889;SDS011;43707;50.184;18.966;2022-12-07T04:54:58;20.80;;;12.00;;
57889;SDS011;43707;50.184;18.966;2022-12-07T04:57:26;27.20;;;14.70;;
57889;SDS011;43707;50.184;18.966;2022-12-07T04:59:54;23.00;;;11.80;;
57889;SDS011;43707;50.184;18.966;2022-12-07T05:02:19;26.60;;;14.10;;
57889;SDS011;43707;50.184;18.966;2022-12-07T05:04:50;29.80;;;14.90;;
57889;SDS011;43707;50.184;18.966;2022-12-07T05:07:18;21.70;;;11.80;;
57889;SDS011;43707;50.184;18.966;2022-12-07T05:09:48;21.40;;;11.70;;
57889;SDS011;43707;50.184;18.966;2022-12-07T05:12:16;26.20;;;13.20;;
57889;SDS011;43707;50.184;18.966;2022-12-07T05:14:45;26.60;;;14.90;;
57889;SDS011;43707;50.184;18.966;2022-12-07T05:17:11;26.20;;;13.20;;
57889;SDS011;43707;50.184;18.966;2022-12-07T05:19:42;22.70;;;11.80;;
57889;SDS011;43707;50.184;18.966;2022-12-07T05:22:11;31.00;;;15.90;;
57889;SDS011;43707;50.184;18.966;2022-12-07T05:24:39;30.70;;;16.60;;
57889;SDS011;43707;50.184;18.966;2022-12-07T05:27:11;36.10;;;15.90;;
57889;SDS011;43707;50.184;18.966;2022-12-07T05:29:42;28.80;;;14.60;;
57889;SDS011;43707;50.184;18.966;2022-12-07T05:32:12;40.90;;;17.40;;
57889;SDS011;43707;50.184;18.966;2022-12-07T05:34:38;38.50;;;18.00;;
57889;SDS011;43707;50.184;18.966;2022-12-07T05:37:03;44.70;;;20.30;;
57889;SDS011;43707;50.184;18.966;2022-12-07T05:39:29;40.00;;;19.10;;
57889;SDS011;43707;50.184;18.966;2022-12-07T05:41:57;47.20;;;22.50;;
57889;SDS011;43707;50.184;18.966;2022-12-07T05:44:38;41.60;;;18.40;;
57889;SDS011;43707;50.184;18.966;2022-12-07T05:47:05;31.70;;;16.80;;
57889;SDS011;43707;50.184;18.966;2022-12-07T05:49:32;33.80;;;16.90;;
57889;SDS011;43707;50.184;18.966;2022-12-07T05:52:04;33.30;;;16.80;;
57889;SDS011;43707;50.184;18.966;2022-12-07T05:54:30;29.40;;;15.80;;
57889;SDS011;43707;50.184;18.966;2022-12-07T05:56:58;31.70;;;17.00;;
57889;SDS011;43707;50.184;18.966;2022-12-07T05:59:30;37.90;;;18.10;;
57889;SDS011;43707;50.184;18.966;2022-12-07T06:02:11;51.40;;;21.40;;
57889;SDS011;43707;50.184;18.966;2022-12-07T06:04:46;72.90;;;30.90;;
57889;SDS011;43707;50.184;18.966;2022-12-07T06:07:15;69.30;;;29.70;;
57889;SDS011;43707;50.184;18.966;2022-12-07T06:09:55;84.80;;;36.30;;
57889;SDS011;43707;50.184;18.966;2022-12-07T06:12:26;59.80;;;27.60;;
57889;SDS011;43707;50.184;18.966;2022-12-07T06:15:01;53.50;;;26.20;;
57889;SDS011;43707;50.184;18.966;2022-12-07T06:17:26;53.70;;;25.10;;
57889;SDS011;43707;50.184;18.966;2022-12-07T06:19:53;43.20;;;22.60;;
57889;SDS011;43707;50.184;18.966;2022-12-07T06:22:42;38.60;;;21.80;;
57889;SDS011;43707;50.184;18.966;2022-12-07T06:25:12;35.70;;;19.30;;
57889;SDS011;43707;50.184;18.966;2022-12-07T06:27:51;30.40;;;18.00;;
57889;SDS011;43707;50.184;18.966;2022-12-07T06:30:29;39.20;;;19.20;;
57889;SDS011;43707;50.184;18.966;2022-12-07T06:33:11;22.30;;;12.90;;
57889;SDS011;43707;50.184;18.966;2022-12-07T06:35:40;21.70;;;12.40;;
57889;SDS011;43707;50.184;18.966;2022-12-07T06:38:07;19.60;;;12.20;;
57889;SDS011;43707;50.184;18.966;2022-12-07T06:40:35;21.60;;;11.30;;
57889;SDS011;43707;50.184;18.966;2022-12-07T06:43:17;13.90;;;9.30;;
57889;SDS011;43707;50.184;18.966;2022-12-07T06:45:43;12.10;;;8.30;;
57889;SDS011;43707;50.184;18.966;2022-12-07T06:48:12;11.70;;;7.50;;
57889;SDS011;43707;50.184;18.966;2022-12-07T06:50:37;13.20;;;8.70;;
57889;SDS011;43707;50.184;18.966;2022-12-07T06:53:03;12.50;;;7.90;;
57889;SDS011;43707;50.184;18.966;2022-12-07T06:55:31;12.80;;;9.40;;
57889;SDS011;43707;50.184;18.966;2022-12-07T06:58:07;10.50;;;7.80;;
57889;SDS011;43707;50.184;18.966;2022-12-07T07:00:38;12.60;;;7.90;;
57889;SDS011;43707;50.184;18.966;2022-12-07T07:03:04;13.40;;;8.20;;
57889;SDS011;43707;50.184;18.966;2022-12-07T07:05:38;9.60;;;6.90;;
57889;SDS011;43707;50.184;18.966;2022-12-07T07:08:04;18.30;;;9.10;;
57889;SDS011;43707;50.184;18.966;2022-12-07T07:10:34;14.20;;;7.50;;
57889;SDS011;43707;50.184;18.966;2022-12-07T07:13:00;12.30;;;7.90;;
57889;SDS011;43707;50.184;18.966;2022-12-07T07:15:26;14.00;;;8.60;;
57889;SDS011;43707;50.184;18.966;2022-12-07T07:17:51;12.30;;;8.00;;
57889;SDS011;43707;50.184;18.966;2022-12-07T07:20:22;11.20;;;8.00;;
57889;SDS011;43707;50.184;18.966;2022-12-07T07:22:54;13.30;;;8.60;;
57889;SDS011;43707;50.184;18.966;2022-12-07T07:25:27;16.20;;;10.30;;
57889;SDS011;43707;50.184;18.966;2022-12-07T07:27:54;16.30;;;9.90;;
57889;SDS011;43707;50.184;18.966;2022-12-07T07:30:23;15.60;;;9.80;;
57889;SDS011;43707;50.184;18.966;2022-12-07T07:32:55;14.70;;;9.10;;
57889;SDS011;43707;50.184;18.966;2022-12-07T07:35:22;15.60;;;9.80;;
57889;SDS011;43707;50.184;18.966;2022-12-07T07:37:54;12.80;;;9.50;;
57889;SDS011;43707;50.184;18.966;2022-12-07T07:40:25;13.90;;;8.90;;
57889;SDS011;43707;50.184;18.966;2022-12-07T07:42:57;14.00;;;9.20;;
57889;SDS011;43707;50.184;18.966;2022-12-07T07:45:26;12.30;;;8.90;;
57889;SDS011;43707;50.184;18.966;2022-12-07T07:47:57;14.50;;;10.10;;
57889;SDS011;43707;50.184;18.966;2022-12-07T07:50:23;13.80;;;9.60;;
57889;SDS011;43707;50.184;18.966;2022-12-07T07:52:48;12.70;;;8.90;;
57889;SDS011;43707;50.184;18.966;2022-12-07T07:55:17;11.40;;;8.10;;
57889;SDS011;43707;50.184;18.966;2022-12-07T07:57:54;10.10;;;7.70;;
57889;SDS011;43707;50.184;18.966;2022-12-07T08:00:23;16.30;;;9.50;;
57889;SDS011;43707;50.184;18.966;2022-12-07T08:02:52;14.60;;;9.20;;
57889;SDS011;43707;50.184;18.966;2022-12-07T08:05:19;13.40;;;8.50;;
57889;SDS011;43707;50.184;18.966;2022-12-07T08:07:46;11.90;;;8.40;;
57889;SDS011;43707;50.184;18.966;2022-12-07T08:10:14;15.80;;;10.20;;
57889;SDS011;43707;50.184;18.966;2022-12-07T08:12:40;11.50;;;8.10;;
57889;SDS011;43707;50.184;18.966;2022-12-07T08:15:47;14.20;;;9.00;;
57889;SDS011;43707;50.184;18.966;2022-12-07T08:18:15;12.80;;;8.70;;
57889;SDS011;43707;50.184;18.966;2022-12-07T08:20:58;14.40;;;10.20;;
57889;SDS011;43707;50.184;18.966;2022-12-07T08:23:24;20.40;;;12.00;;
57889;SDS011;43707;50.184;18.966;2022-12-07T08:25:52;14.90;;;10.00;;
57889;SDS011;43707;50.184;18.966;2022-12-07T08:28:25;21.20;;;13.10;;
57889;SDS011;43707;50.184;18.966;2022-12-07T08:31:04;24.20;;;15.40;;
57889;SDS011;43707;50.184;18.966;2022-12-07T08:33:32;25.30;;;14.80;;
57889;SDS011;43707;50.184;18.966;2022-12-07T08:36:02;34.50;;;18.60;;
57889;SDS011;43707;50.184;18.966;2022-12-07T08:38:29;30.20;;;16.10;;
57889;SDS011;43707;50.184;18.966;2022-12-07T08:40:55;31.70;;;16.50;;
57889;SDS011;43707;50.184;18.966;2022-12-07T08:43:21;29.60;;;16.70;;
57889;SDS011;43707;50.184;18.966;2022-12-07T08:48:31;30.40;;;16.80;;
57889;SDS011;43707;50.184;18.966;2022-12-07T08:51:07;25.60;;;13.20;;
57889;SDS011;43707;50.184;18.966;2022-12-07T08:53:34;20.20;;;12.80;;
57889;SDS011;43707;50.184;18.966;2022-12-07T08:56:03;26.50;;;14.10;;
57889;SDS011;43707;50.184;18.966;2022-12-07T08:58:35;29.00;;;14.60;;
57889;SDS011;43707;50.184;18.966;2022-12-07T09:01:01;20.70;;;12.30;;
57889;SDS011;43707;50.184;18.966;2022-12-07T09:03:28;28.80;;;15.50;;
57889;SDS011;43707;50.184;18.966;2022-12-07T09:05:57;23.90;;;12.00;;
57889;SDS011;43707;50.184;18.966;2022-12-07T09:08:31;32.20;;;14.00;;
57889;SDS011;43707;50.184;18.966;2022-12-07T09:11:08;29.80;;;14.30;;
57889;SDS011;43707;50.184;18.966;2022-12-07T09:13:34;23.10;;;14.20;;
57889;SDS011;43707;50.184;18.966;2022-12-07T09:16:02;38.50;;;19.00;;
57889;SDS011;43707;50.184;18.966;2022-12-07T09:18:29;28.10;;;14.70;;
57889;SDS011;43707;50.184;18.966;2022-12-07T09:20:59;27.80;;;15.30;;
57889;SDS011;43707;50.184;18.966;2022-12-07T09:23:40;29.80;;;15.30;;
57889;SDS011;43707;50.184;18.966;2022-12-07T09:26:08;29.00;;;15.70;;
57889;SDS011;43707;50.184;18.966;2022-12-07T09:28:37;28.40;;;13.90;;
57889;SDS011;43707;50.184;18.966;2022-12-07T09:33:53;22.40;;;13.40;;
57889;SDS011;43707;50.184;18.966;2022-12-07T09:36:20;26.70;;;14.80;;
57889;SDS011;43707;50.184;18.966;2022-12-07T09:38:45;27.30;;;16.40;;
57889;SDS011;43707;50.184;18.966;2022-12-07T09:41:11;23.10;;;12.80;;
57889;SDS011;43707;50.184;18.966;2022-12-07T09:43:38;32.90;;;19.20;;
57889;SDS011;43707;50.184;18.966;2022-12-07T09:46:12;31.90;;;16.10;;
57889;SDS011;43707;50.184;18.966;2022-12-07T09:48:47;25.40;;;15.90;;
57889;SDS011;43707;50.184;18.966;2022-12-07T09:51:22;18.20;;;11.80;;
57889;SDS011;43707;50.184;18.966;2022-12-07T09:53:48;18.70;;;12.20;;
57889;SDS011;43707;50.184;18.966;2022-12-07T09:56:24;20.30;;;12.90;;
57889;SDS011;43707;50.184;18.966;2022-12-07T09:58:58;17.80;;;10.60;;
57889;SDS011;43707;50.184;18.966;2022-12-07T10:01:28;15.00;;;9.40;;
57889;SDS011;43707;50.184;18.966;2022-12-07T10:03:58;21.00;;;10.30;;
57889;SDS011;43707;50.184;18.966;2022-12-07T10:06:47;18.80;;;10.60;;
57889;SDS011;43707;50.184;18.966;2022-12-07T10:09:14;14.70;;;10.10;;
57889;SDS011;43707;50.184;18.966;2022-12-07T10:14:32;11.70;;;7.80;;
57889;SDS011;43707;50.184;18.966;2022-12-07T10:16:59;14.00;;;8.40;;
57889;SDS011;43707;50.184;18.966;2022-12-07T10:19:30;13.40;;;8.10;;
57889;SDS011;43707;50.184;18.966;2022-12-07T10:22:14;12.40;;;8.50;;
57889;SDS011;43707;50.184;18.966;2022-12-07T10:24:43;16.30;;;10.40;;
57889;SDS011;43707;50.184;18.966;2022-12-07T10:27:17;13.30;;;10.10;;
57889;SDS011;43707;50.184;18.966;2022-12-07T10:29:49;11.70;;;8.80;;
57889;SDS011;43707;50.184;18.966;2022-12-07T10:32:35;12.50;;;8.40;;
57889;SDS011;43707;50.184;18.966;2022-12-07T10:38:07;11.20;;;7.50;;
57889;SDS011;43707;50.184;18.966;2022-12-07T10:40:44;10.30;;;7.20;;
57889;SDS011;43707;50.184;18.966;2022-12-07T10:46:23;9.10;;;6.70;;
57889;SDS011;43707;50.184;18.966;2022-12-07T11:03:31;10.10;;;7.80;;
57889;SDS011;43707;50.184;18.966;2022-12-07T11:39:44;9.50;;;7.00;;
57889;SDS011;43707;50.184;18.966;2022-12-07T11:42:32;13.40;;;7.90;;
57889;SDS011;43707;50.184;18.966;2022-12-07T11:45:14;11.70;;;7.10;;
57889;SDS011;43707;50.184;18.966;2022-12-07T11:47:48;12.90;;;8.20;;
57889;SDS011;43707;50.184;18.966;2022-12-07T11:53:35;10.20;;;6.70;;
57889;SDS011;43707;50.184;18.966;2022-12-07T11:56:02;9.70;;;7.50;;
57889;SDS011;43707;50.184;18.966;2022-12-07T12:06:38;10.20;;;7.20;;
57889;SDS011;43707;50.184;18.966;2022-12-07T12:09:06;9.40;;;6.80;;
57889;SDS011;43707;50.184;18.966;2022-12-07T12:14:15;13.20;;;7.90;;
57889;SDS011;43707;50.184;18.966;2022-12-07T12:16:56;8.20;;;6.30;;
57889;SDS011;43707;50.184;18.966;2022-12-07T12:22:48;8.50;;;6.30;;
57889;SDS011;43707;50.184;18.966;2022-12-07T12:25:28;7.60;;;6.40;;
57889;SDS011;43707;50.184;18.966;2022-12-07T12:28:15;8.50;;;6.70;;
57889;SDS011;43707;50.184;18.966;2022-12-07T12:33:58;25.70;;;14.90;;
57889;SDS011;43707;50.184;18.966;2022-12-07T12:36:28;26.00;;;14.20;;
57889;SDS011;43707;50.184;18.966;2022-12-07T12:39:12;29.00;;;14.30;;
57889;SDS011;43707;50.184;18.966;2022-12-07T12:47:01;10.30;;;7.50;;
57889;SDS011;43707;50.184;18.966;2022-12-07T12:49:42;12.40;;;8.10;;
57889;SDS011;43707;50.184;18.966;2022-12-07T12:57:34;13.50;;;8.10;;
57889;SDS011;43707;50.184;18.966;2022-12-07T13:00:23;14.60;;;10.00;;
57889;SDS011;43707;50.184;18.966;2022-12-07T13:02:55;12.40;;;9.10;;
57889;SDS011;43707;50.184;18.966;2022-12-07T13:05:32;21.40;;;11.20;;
57889;SDS011;43707;50.184;18.966;2022-12-07T13:08:00;32.00;;;16.90;;
57889;SDS011;43707;50.184;18.966;2022-12-07T13:10:34;35.80;;;16.10;;
57889;SDS011;43707;50.184;18.966;2022-12-07T13:13:28;39.80;;;18.10;;
57889;SDS011;43707;50.184;18.966;2022-12-07T13:26:17;12.00;;;8.20;;
57889;SDS011;43707;50.184;18.966;2022-12-07T13:31:51;10.20;;;7.30;;
57889;SDS011;43707;50.184;18.966;2022-12-07T13:37:00;11.50;;;7.50;;
57889;SDS011;43707;50.184;18.966;2022-12-07T13:39:27;14.00;;;7.80;;
57889;SDS011;43707;50.184;18.966;2022-12-07T13:41:54;13.90;;;8.90;;
57889;SDS011;43707;50.184;18.966;2022-12-07T13:44:22;15.20;;;7.90;;
57889;SDS011;43707;50.184;18.966;2022-12-07T13:47:00;11.20;;;7.50;;
57889;SDS011;43707;50.184;18.966;2022-12-07T13:55:15;20.00;;;8.90;;
57889;SDS011;43707;50.184;18.966;2022-12-07T13:57:50;24.00;;;9.40;;
57889;SDS011;43707;50.184;18.966;2022-12-07T14:00:25;18.30;;;8.10;;
57889;SDS011;43707;50.184;18.966;2022-12-07T14:11:55;15.40;;;7.80;;
57889;SDS011;43707;50.184;18.966;2022-12-07T14:14:29;20.60;;;9.20;;
57889;SDS011;43707;50.184;18.966;2022-12-07T14:17:01;42.60;;;16.70;;
57889;SDS011;43707;50.184;18.966;2022-12-07T14:22:19;69.40;;;28.60;;
57889;SDS011;43707;50.184;18.966;2022-12-07T14:24:49;71.30;;;27.50;;
57889;SDS011;43707;50.184;18.966;2022-12-07T14:33:19;64.70;;;24.90;;
57889;SDS011;43707;50.184;18.966;2022-12-07T14:35:45;77.70;;;26.40;;
57889;SDS011;43707;50.184;18.966;2022-12-07T14:38:15;80.80;;;27.40;;
57889;SDS011;43707;50.184;18.966;2022-12-07T14:45:49;89.40;;;29.60;;
57889;SDS011;43707;50.184;18.966;2022-12-07T14:48:15;65.60;;;23.00;;
57889;SDS011;43707;50.184;18.966;2022-12-07T14:50:52;47.90;;;18.60;;
57889;SDS011;43707;50.184;18.966;2022-12-07T14:53:18;41.30;;;19.00;;
57889;SDS011;43707;50.184;18.966;2022-12-07T14:55:52;26.30;;;12.50;;
57889;SDS011;43707;50.184;18.966;2022-12-07T14:58:21;35.90;;;17.40;;
57889;SDS011;43707;50.184;18.966;2022-12-07T15:00:47;36.40;;;19.60;;
57889;SDS011;43707;50.184;18.966;2022-12-07T15:03:17;23.10;;;13.50;;
57889;SDS011;43707;50.184;18.966;2022-12-07T15:05:47;23.90;;;11.60;;
57889;SDS011;43707;50.184;18.966;2022-12-07T15:08:18;20.20;;;11.80;;
57889;SDS011;43707;50.184;18.966;2022-12-07T15:10:44;21.40;;;9.60;;
57889;SDS011;43707;50.184;18.966;2022-12-07T15:13:12;19.60;;;9.20;;
57889;SDS011;43707;50.184;18.966;2022-12-07T15:15:57;22.40;;;10.90;;
57889;SDS011;43707;50.184;18.966;2022-12-07T15:18:27;25.80;;;10.00;;
57889;SDS011;43707;50.184;18.966;2022-12-07T15:20:52;21.70;;;9.30;;
57889;SDS011;43707;50.184;18.966;2022-12-07T15:23:19;24.20;;;11.80;;
57889;SDS011;43707;50.184;18.966;2022-12-07T18:15:18;27.70;;;13.20;;
57889;SDS011;43707;50.184;18.966;2022-12-07T18:57:04;31.20;;;14.80;;
57889;SDS011;43707;50.184;18.966;2022-12-07T19:02:40;22.20;;;12.80;;
57889;SDS011;43707;50.184;18.966;2022-12-07T19:19:54;24.70;;;12.30;;
57889;SDS011;43707;50.184;18.966;2022-12-07T19:22:24;29.80;;;15.10;;
57889;SDS011;43707;50.184;18.966;2022-12-07T19:24:55;26.70;;;13.70;;
57889;SDS011;43707;50.184;18.966;2022-12-07T19:35:42;25.60;;;13.10;;
57889;SDS011;43707;50.184;18.966;2022-12-07T19:38:34;19.60;;;10.70;;
57889;SDS011;43707;50.184;18.966;2022-12-07T19:44:10;21.00;;;12.40;;
57889;SDS011;43707;50.184;18.966;2022-12-07T19:46:40;19.30;;;11.10;;
57889;SDS011;43707;50.184;18.966;2022-12-07T19:49:22;20.60;;;10.80;;
57889;SDS011;43707;50.184;18.966;2022-12-07T19:51:50;26.10;;;13.10;;
57889;SDS011;43707;50.184;18.966;2022-12-07T19:54:28;26.50;;;12.80;;
57889;SDS011;43707;50.184;18.966;2022-12-07T19:57:06;34.80;;;13.70;;
57889;SDS011;43707;50.184;18.966;2022-12-07T19:59:36;24.20;;;11.50;;
57889;SDS011;43707;50.184;18.966;2022-12-07T20:02:11;22.80;;;11.20;;
57889;SDS011;43707;50.184;18.966;2022-12-07T20:04:38;15.20;;;10.80;;
57889;SDS011;43707;50.184;18.966;2022-12-07T20:07:06;18.70;;;10.50;;
57889;SDS011;43707;50.184;18.966;2022-12-07T20:09:32;21.80;;;10.90;;
57889;SDS011;43707;50.184;18.966;2022-12-07T20:12:00;15.80;;;9.90;;
57889;SDS011;43707;50.184;18.966;2022-12-07T20:14:45;20.80;;;10.20;;
57889;SDS011;43707;50.184;18.966;2022-12-07T20:17:10;17.30;;;9.70;;
57889;SDS011;43707;50.184;18.966;2022-12-07T20:19:37;18.70;;;9.90;;
57889;SDS011;43707;50.184;18.966;2022-12-07T20:22:03;18.90;;;10.70;;
57889;SDS011;43707;50.184;18.966;2022-12-07T20:24:29;19.60;;;9.80;;
57889;SDS011;43707;50.184;18.966;2022-12-07T20:27:07;17.80;;;10.90;;
57889;SDS011;43707;50.184;18.966;2022-12-07T20:29:40;15.90;;;10.00;;
57889;SDS011;43707;50.184;18.966;2022-12-07T20:32:10;17.70;;;10.30;;
57889;SDS011;43707;50.184;18.966;2022-12-07T20:34:37;18.70;;;11.00;;
57889;SDS011;43707;50.184;18.966;2022-12-07T20:37:13;18.70;;;9.70;;
57889;SDS011;43707;50.184;18.966;2022-12-07T20:39:39;19.10;;;9.90;;
57889;SDS011;43707;50.184;18.966;2022-12-07T20:42:05;14.40;;;9.60;;
57889;SDS011;43707;50.184;18.966;2022-12-07T20:44:50;24.50;;;11.10;;
57889;SDS011;43707;50.184;18.966;2022-12-07T20:55:48;18.00;;;10.10;;
57889;SDS011;43707;50.184;18.966;2022-12-07T20:58:24;17.80;;;9.90;;
57889;SDS011;43707;50.184;18.966;2022-12-07T21:01:00;21.70;;;11.20;;
57889;SDS011;43707;50.184;18.966;2022-12-07T21:03:31;16.50;;;9.60;;
57889;SDS011;43707;50.184;18.966;2022-12-07T21:06:04;22.40;;;10.70;;
57889;SDS011;43707;50.184;18.966;2022-12-07T21:08:36;20.10;;;11.10;;
57889;SDS011;43707;50.184;18.966;2022-12-07T21:11:13;23.60;;;10.20;;
57889;SDS011;43707;50.184;18.966;2022-12-07T21:16:30;21.30;;;11.40;;
57889;SDS011;43707;50.184;18.966;2022-12-07T21:19:02;23.40;;;11.00;;
57889;SDS011;43707;50.184;18.966;2022-12-07T21:21:40;20.80;;;10.30;;
57889;SDS011;43707;50.184;18.966;2022-12-07T21:24:12;22.90;;;10.40;;
57889;SDS011;43707;50.184;18.966;2022-12-07T21:26:41;20.10;;;10.50;;
57889;SDS011;43707;50.184;18.966;2022-12-07T21:29:19;20.90;;;11.00;;
57889;SDS011;43707;50.184;18.966;2022-12-07T21:31:47;21.60;;;9.60;;
57889;SDS011;43707;50.184;18.966;2022-12-07T21:34:20;19.10;;;8.70;;
57889;SDS011;43707;50.184;18.966;2022-12-07T21:36:48;21.10;;;11.10;;
57889;SDS011;43707;50.184;18.966;2022-12-07T21:39:13;15.80;;;9.60;;
57889;SDS011;43707;50.184;18.966;2022-12-07T21:41:43;22.30;;;10.70;;
57889;SDS011;43707;50.184;18.966;2022-12-07T21:44:08;17.00;;;9.70;;
57889;SDS011;43707;50.184;18.966;2022-12-07T21:46:36;21.50;;;9.90;;
57889;SDS011;43707;50.184;18.966;2022-12-07T21:49:08;19.00;;;10.90;;
57889;SDS011;43707;50.184;18.966;2022-12-07T21:51:36;19.80;;;10.40;;
57889;SDS011;43707;50.184;18.966;2022-12-07T21:54:02;14.90;;;9.10;;
57889;SDS011;43707;50.184;18.966;2022-12-07T21:56:35;17.70;;;8.30;;
57889;SDS011;43707;50.184;18.966;2022-12-07T21:59:06;17.40;;;10.40;;
57889;SDS011;43707;50.184;18.966;2022-12-07T22:01:35;18.10;;;9.60;;
57889;SDS011;43707;50.184;18.966;2022-12-07T22:04:08;21.20;;;10.50;;
57889;SDS011;43707;50.184;18.966;2022-12-07T22:06:36;19.90;;;9.90;;
57889;SDS011;43707;50.184;18.966;2022-12-07T22:09:06;15.10;;;9.40;;
57889;SDS011;43707;50.184;18.966;2022-12-07T22:11:34;21.50;;;8.50;;
57889;SDS011;43707;50.184;18.966;2022-12-07T22:14:00;20.00;;;10.00;;
57889;SDS011;43707;50.184;18.966;2022-12-07T22:16:45;22.00;;;9.30;;
57889;SDS011;43707;50.184;18.966;2022-12-07T22:19:11;26.70;;;11.50;;
57889;SDS011;43707;50.184;18.966;2022-12-07T22:21:36;21.60;;;10.90;;